createdAt,value
2022-09-28T00:00:10.075Z,18.76
2022-09-28T00:02:15.954Z,18.73
2022-09-28T00:04:18.435Z,18.75
2022-09-28T00:06:25.494Z,18.70
2022-09-28T00:08:30.689Z,18.70
2022-09-28T00:10:32.789Z,18.69
2022-09-28T00:12:35.450Z,18.64
2022-09-28T00:14:37.309Z,18.62
2022-09-28T00:16:43.789Z,18.63
2022-09-28T00:18:46.688Z,18.60
2022-09-28T00:20:50.855Z,18.62
2022-09-28T00:22:53.086Z,18.60
2022-09-28T00:24:55.407Z,18.58
2022-09-28T00:27:00.891Z,18.60
2022-09-28T00:29:03.345Z,18.56
2022-09-28T00:31:06.103Z,18.53
2022-09-28T00:33:08.215Z,18.49
2022-09-28T00:35:10.187Z,18.47
2022-09-28T00:37:13.992Z,18.50
2022-09-28T00:39:17.356Z,18.48
2022-09-28T00:41:19.463Z,18.43
2022-09-28T00:43:23.841Z,18.41
2022-09-28T00:45:27.069Z,18.36
2022-09-28T00:47:38.450Z,18.33
2022-09-28T00:49:45.749Z,18.28
2022-09-28T00:51:48.893Z,18.21
2022-09-28T00:53:51.793Z,18.17
2022-09-28T00:55:57.699Z,18.17
2022-09-28T00:58:02.043Z,18.19
2022-09-28T01:00:05.636Z,18.12
2022-09-28T01:02:10.499Z,18.08
2022-09-28T01:04:12.924Z,18.10
2022-09-28T01:06:23.610Z,17.98
2022-09-28T01:08:28.670Z,18.01
2022-09-28T01:10:31.752Z,17.87
2022-09-28T01:12:33.807Z,17.88
2022-09-28T01:14:36.331Z,17.83
2022-09-28T01:17:02.643Z,17.74
2022-09-28T01:19:35.871Z,17.73
2022-09-28T01:21:52.256Z,17.63
2022-09-28T01:24:42.210Z,17.60
2022-09-28T01:26:56.513Z,17.67
2022-09-28T01:29:12.565Z,17.71
2022-09-28T01:31:19.875Z,17.72
2022-09-28T01:33:31.737Z,17.72
2022-09-28T01:35:37.055Z,17.74
2022-09-28T01:37:44.692Z,17.69
2022-09-28T01:39:51.047Z,17.69
2022-09-28T01:41:57.741Z,17.74
2022-09-28T01:44:03.131Z,17.77
2022-09-28T01:46:20.478Z,17.71
2022-09-28T01:48:32.116Z,17.69
2022-09-28T01:50:39.922Z,17.71
2022-09-28T01:52:49.656Z,17.56
2022-09-28T01:55:10.114Z,17.52
2022-09-28T01:57:18.836Z,17.46
2022-09-28T01:59:28.171Z,17.42
2022-09-28T02:01:39.511Z,17.36
2022-09-28T02:03:51.236Z,17.39
2022-09-28T02:06:11.506Z,17.39
2022-09-28T02:08:18.155Z,17.37
2022-09-28T02:10:24.957Z,17.39
2022-09-28T02:12:39.473Z,17.36
2022-09-28T02:14:45.802Z,17.30
2022-09-28T02:16:51.158Z,17.30
2022-09-28T02:18:59.913Z,17.30
2022-09-28T02:21:22.099Z,17.17
2022-09-28T02:23:26.845Z,17.27
2022-09-28T02:25:40.295Z,17.25
2022-09-28T02:27:43.074Z,17.26
2022-09-28T02:29:45.341Z,17.27
2022-09-28T02:31:47.686Z,17.25
2022-09-28T02:33:51.822Z,17.11
2022-09-28T02:35:53.931Z,17.09
2022-09-28T02:37:57.987Z,17.14
2022-09-28T02:39:59.932Z,17.15
2022-09-28T02:42:26.019Z,17.16
2022-09-28T02:44:39.932Z,16.97
2022-09-28T02:46:45.260Z,17.00
2022-09-28T02:49:21.478Z,17.00
2022-09-28T02:52:22.057Z,17.02
2022-09-28T02:55:07.702Z,16.96
2022-09-28T02:57:39.645Z,16.90
2022-09-28T02:59:53.243Z,16.97
2022-09-28T03:02:10.017Z,16.95
2022-09-28T03:04:36.756Z,16.89
2022-09-28T03:06:55.014Z,16.88
2022-09-28T03:09:08.025Z,16.86
2022-09-28T03:11:22.585Z,16.91
2022-09-28T03:13:28.914Z,16.93
2022-09-28T03:15:33.185Z,16.95
2022-09-28T03:17:35.903Z,16.92
2022-09-28T03:19:38.122Z,16.87
2022-09-28T03:21:40.471Z,16.89
2022-09-28T03:23:42.978Z,16.91
2022-09-28T03:25:45.524Z,16.93
2022-09-28T03:27:47.911Z,16.90
2022-09-28T03:29:50.996Z,16.87
2022-09-28T03:31:53.692Z,16.88
2022-09-28T03:33:56.502Z,16.89
2022-09-28T03:35:59.074Z,16.78
2022-09-28T03:38:01.731Z,16.71
2022-09-28T03:40:06.908Z,16.73
2022-09-28T03:42:09.035Z,16.71
2022-09-28T03:44:14.650Z,16.71
2022-09-28T03:46:17.237Z,16.73
2022-09-28T03:48:29.867Z,16.70
2022-09-28T03:50:34.174Z,16.61
2022-09-28T03:52:36.283Z,16.59
2022-09-28T03:54:38.555Z,16.67
2022-09-28T03:56:41.476Z,16.69
2022-09-28T03:58:43.911Z,16.67
2022-09-28T04:00:48.484Z,16.64
2022-09-28T04:02:50.491Z,16.63
2022-09-28T04:04:52.586Z,16.53
2022-09-28T04:06:55.235Z,16.45
2022-09-28T04:08:57.661Z,16.41
2022-09-28T04:11:01.717Z,16.42
2022-09-28T04:13:04.936Z,16.37
2022-09-28T04:15:07.920Z,16.38
2022-09-28T04:17:10.031Z,16.40
2022-09-28T04:19:12.213Z,16.47
2022-09-28T04:21:32.879Z,16.45
2022-09-28T04:23:43.001Z,16.40
2022-09-28T04:25:52.328Z,16.36
2022-09-28T04:28:13.266Z,16.37
2022-09-28T04:30:15.755Z,16.35
2022-09-28T04:32:20.222Z,16.37
2022-09-28T04:34:23.266Z,16.38
2022-09-28T04:36:25.446Z,16.39
2022-09-28T04:38:51.319Z,16.39
2022-09-28T04:40:50.000Z,16.26
2022-09-28T04:42:56.163Z,16.20
2022-09-28T04:45:01.045Z,16.20
2022-09-28T04:47:05.322Z,16.19
2022-09-28T04:49:09.855Z,16.36
2022-09-28T04:51:25.481Z,16.40
2022-09-28T04:53:28.189Z,16.44
2022-09-28T04:55:32.591Z,16.46
2022-09-28T04:57:35.688Z,16.39
2022-09-28T04:59:37.895Z,16.36
2022-09-28T05:01:40.152Z,16.37
2022-09-28T05:04:00.476Z,16.36
2022-09-28T05:06:18.646Z,16.33
2022-09-28T05:08:22.943Z,16.21
2022-09-28T05:10:25.346Z,16.26
2022-09-28T05:12:30.887Z,16.14
2022-09-28T05:14:34.327Z,16.18
2022-09-28T05:16:36.132Z,16.18
2022-09-28T05:18:57.918Z,16.20
2022-09-28T05:21:02.349Z,16.19
2022-09-28T05:23:04.367Z,16.20
2022-09-28T05:25:07.462Z,16.21
2022-09-28T05:27:21.771Z,16.25
2022-09-28T05:29:33.676Z,16.27
2022-09-28T05:31:54.204Z,16.28
2022-09-28T05:34:22.133Z,16.35
2022-09-28T05:36:26.835Z,16.35
2022-09-28T05:38:30.451Z,16.37
2022-09-28T05:40:32.740Z,16.38
2022-09-28T05:42:34.693Z,16.42
2022-09-28T05:44:38.550Z,16.45
2022-09-28T05:46:40.902Z,16.46
2022-09-28T05:48:44.620Z,16.50
2022-09-28T05:50:53.992Z,16.44
2022-09-28T05:53:06.869Z,16.39
2022-09-28T05:55:09.762Z,16.44
2022-09-28T05:57:12.495Z,16.47
2022-09-28T05:59:14.916Z,16.39
2022-09-28T06:01:19.388Z,16.42
2022-09-28T06:03:22.432Z,16.51
2022-09-28T06:05:25.049Z,16.53
2022-09-28T06:07:27.117Z,16.54
2022-09-28T06:09:30.547Z,16.58
2022-09-28T06:11:58.276Z,16.63
2022-09-28T06:14:08.355Z,16.66
2022-09-28T06:16:15.325Z,16.76
2022-09-28T06:18:17.969Z,16.78
2022-09-28T06:20:42.936Z,16.75
2022-09-28T06:23:04.313Z,16.69
2022-09-28T06:25:07.221Z,16.66
2022-09-28T06:27:09.465Z,16.54
2022-09-28T06:29:19.233Z,16.45
2022-09-28T06:31:24.051Z,16.39
2022-09-28T06:33:26.887Z,16.44
2022-09-28T06:35:30.823Z,16.42
2022-09-28T06:37:33.508Z,16.42
2022-09-28T06:39:37.213Z,16.43
2022-09-28T06:41:41.810Z,16.47
2022-09-28T06:43:49.494Z,16.52
2022-09-28T06:46:00.403Z,16.48
2022-09-28T06:48:20.759Z,16.53
2022-09-28T06:50:24.419Z,16.56
2022-09-28T06:52:44.290Z,16.63
2022-09-28T06:54:59.296Z,16.67
2022-09-28T06:57:12.207Z,16.71
2022-09-28T06:59:14.047Z,16.74
2022-09-28T07:01:16.253Z,16.80
2022-09-28T07:03:30.962Z,16.84
2022-09-28T07:05:54.318Z,16.85
2022-09-28T07:08:19.837Z,16.87
2022-09-28T07:10:42.906Z,16.81
2022-09-28T07:13:01.556Z,16.85
2022-09-28T07:15:09.416Z,16.83
2022-09-28T07:17:13.997Z,16.95
2022-09-28T07:19:17.805Z,16.98
2022-09-28T07:21:28.991Z,17.00
2022-09-28T07:23:47.622Z,17.04
2022-09-28T07:26:07.797Z,16.96
2022-09-28T07:28:30.727Z,17.05
2022-09-28T07:30:52.951Z,17.06
2022-09-28T07:33:15.981Z,17.03
2022-09-28T07:35:27.590Z,17.04
2022-09-28T07:37:31.725Z,17.03
2022-09-28T07:39:54.205Z,17.05
2022-09-28T07:42:02.434Z,17.04
2022-09-28T07:44:07.557Z,17.08
2022-09-28T07:46:12.586Z,17.12
2022-09-28T07:48:20.477Z,17.18
2022-09-28T07:50:36.356Z,17.19
2022-09-28T07:52:49.377Z,17.13
2022-09-28T07:55:03.336Z,17.12
2022-09-28T07:57:31.224Z,17.08
2022-09-28T07:59:56.532Z,17.07
2022-09-28T08:02:20.280Z,17.11
2022-09-28T08:04:23.915Z,17.09
2022-09-28T08:06:26.437Z,17.09
2022-09-28T08:08:30.517Z,17.13
2022-09-28T08:10:33.774Z,17.20
2022-09-28T08:13:03.043Z,17.24
2022-09-28T08:15:23.796Z,17.29
2022-09-28T08:17:52.681Z,17.35
2022-09-28T08:20:16.470Z,17.43
2022-09-28T08:22:29.556Z,17.44
2022-09-28T08:24:32.471Z,17.53
2022-09-28T08:26:35.301Z,17.54
2022-09-28T08:28:39.264Z,17.57
2022-09-28T08:31:04.873Z,17.61
2022-09-28T08:33:07.923Z,17.63
2022-09-28T08:35:19.206Z,17.71
2022-09-28T08:37:39.757Z,17.75
2022-09-28T08:40:28.425Z,17.74
2022-09-28T08:42:45.803Z,17.82
2022-09-28T08:45:05.733Z,17.84
2022-09-28T08:47:54.027Z,17.96
2022-09-28T08:50:05.454Z,18.00
2022-09-28T08:52:26.676Z,17.99
2022-09-28T08:55:00.460Z,18.05
2022-09-28T08:57:24.083Z,18.18
2022-09-28T08:59:35.375Z,18.34
2022-09-28T09:01:49.511Z,18.41
2022-09-28T09:03:55.982Z,18.53
2022-09-28T09:06:58.071Z,18.50
2022-09-28T09:09:43.226Z,18.63
2022-09-28T09:12:21.452Z,18.63
2022-09-28T09:14:34.695Z,18.77
2022-09-28T09:16:45.870Z,18.87
2022-09-28T09:19:34.485Z,18.98
2022-09-28T09:21:50.943Z,19.10
2022-09-28T09:24:01.671Z,19.13
2022-09-28T09:26:40.549Z,19.14
2022-09-28T09:29:48.764Z,19.17
2022-09-28T09:32:16.361Z,19.27
2022-09-28T09:34:27.369Z,19.27
2022-09-28T09:37:29.422Z,19.32
2022-09-28T09:40:31.463Z,19.48
2022-09-28T09:43:11.334Z,19.65
2022-09-28T09:45:31.469Z,19.68
2022-09-28T09:48:21.308Z,19.70
2022-09-28T09:50:39.782Z,19.78
2022-09-28T09:52:55.890Z,19.89
2022-09-28T09:54:58.095Z,19.99
2022-09-28T09:57:32.943Z,20.01
2022-09-28T09:59:42.023Z,20.12
2022-09-28T10:02:26.451Z,20.09
2022-09-28T10:04:43.375Z,20.07
2022-09-28T10:06:59.911Z,19.98
2022-09-28T10:09:06.231Z,20.02
2022-09-28T10:11:42.195Z,20.12
2022-09-28T10:13:49.762Z,20.21
2022-09-28T10:16:16.292Z,20.29
2022-09-28T10:18:30.384Z,20.33
2022-09-28T10:20:53.199Z,20.40
2022-09-28T10:23:30.328Z,20.50
2022-09-28T10:25:36.672Z,20.57
2022-09-28T10:27:45.672Z,20.60
2022-09-28T10:30:13.147Z,20.57
2022-09-28T10:32:26.945Z,20.62
2022-09-28T10:34:35.800Z,20.64
2022-09-28T10:37:01.689Z,20.71
2022-09-28T10:39:33.093Z,20.79
2022-09-28T10:41:50.215Z,20.83
2022-09-28T10:44:06.975Z,20.86
2022-09-28T10:46:24.137Z,20.78
2022-09-28T10:48:36.319Z,20.84
2022-09-28T10:50:40.858Z,20.92
2022-09-28T10:52:47.505Z,20.99
2022-09-28T10:55:32.231Z,21.00
2022-09-28T10:57:37.441Z,21.03
2022-09-28T10:59:42.662Z,21.08
2022-09-28T11:02:22.349Z,21.02
2022-09-28T11:04:38.780Z,20.99
2022-09-28T11:06:42.016Z,21.12
2022-09-28T11:08:50.634Z,21.16
2022-09-28T11:11:12.705Z,21.18
2022-09-28T11:13:14.923Z,21.24
2022-09-28T11:15:30.802Z,21.25
2022-09-28T11:17:40.767Z,21.28
2022-09-28T11:19:46.111Z,21.37
2022-09-28T11:21:51.238Z,21.27
2022-09-28T11:23:58.885Z,21.32
2022-09-28T11:26:07.314Z,21.30
2022-09-28T11:28:25.861Z,21.33
2022-09-28T11:30:29.534Z,21.44
2022-09-28T11:33:04.061Z,21.52
2022-09-28T11:35:36.570Z,21.56
2022-09-28T11:37:51.348Z,21.62
2022-09-28T11:40:42.544Z,21.74
2022-09-28T11:43:16.763Z,21.77
2022-09-28T11:45:52.659Z,21.78
2022-09-28T11:48:04.869Z,21.82
2022-09-28T11:50:23.865Z,21.81
2022-09-28T11:52:35.403Z,21.83
2022-09-28T11:54:51.949Z,21.76
2022-09-28T11:56:55.602Z,21.83
2022-09-28T11:59:12.785Z,21.85
2022-09-28T12:01:25.612Z,21.95
2022-09-28T12:03:52.963Z,22.03
2022-09-28T12:06:05.518Z,22.07
2022-09-28T12:08:22.780Z,22.14
2022-09-28T12:11:05.619Z,22.10
2022-09-28T12:13:34.481Z,22.04
2022-09-28T12:16:27.639Z,22.01
2022-09-28T12:18:28.767Z,22.15
2022-09-28T12:20:39.390Z,22.20
2022-09-28T12:22:48.446Z,22.29
2022-09-28T12:24:55.690Z,22.33
2022-09-28T12:27:16.762Z,22.38
2022-09-28T12:29:24.434Z,22.43
2022-09-28T12:31:49.577Z,22.47
2022-09-28T12:33:52.662Z,22.44
2022-09-28T12:36:18.997Z,22.28
2022-09-28T12:38:43.323Z,22.30
2022-09-28T12:40:55.941Z,22.37
2022-09-28T12:43:41.099Z,22.25
2022-09-28T12:46:18.472Z,22.19
2022-09-28T12:48:27.109Z,22.32
2022-09-28T12:50:54.708Z,22.37
2022-09-28T12:53:33.541Z,22.35
2022-09-28T12:55:56.791Z,22.34
2022-09-28T12:58:16.876Z,22.30
2022-09-28T13:00:24.796Z,22.33
2022-09-28T13:03:07.300Z,22.26
2022-09-28T13:05:29.622Z,22.19
2022-09-28T13:07:59.819Z,22.28
2022-09-28T13:10:14.173Z,22.30
2022-09-28T13:12:42.789Z,22.28
2022-09-28T13:15:10.048Z,22.35
2022-09-28T13:17:21.489Z,22.42
2022-09-28T13:19:59.529Z,22.46
2022-09-28T13:22:17.109Z,22.38
2022-09-28T13:24:34.089Z,22.38
2022-09-28T13:26:47.218Z,22.27
2022-09-28T13:28:54.889Z,22.33
2022-09-28T13:31:00.619Z,22.31
2022-09-28T13:33:06.201Z,22.33
2022-09-28T13:35:15.185Z,22.37
2022-09-28T13:37:17.279Z,22.35
2022-09-28T13:39:53.076Z,22.29
2022-09-28T13:41:56.262Z,22.30
2022-09-28T13:44:24.712Z,22.21
2022-09-28T13:46:26.897Z,22.22
2022-09-28T13:49:03.621Z,22.11
2022-09-28T13:51:22.395Z,22.19
2022-09-28T13:53:36.594Z,22.16
2022-09-28T13:56:04.670Z,22.12
2022-09-28T13:58:27.098Z,22.18
2022-09-28T14:00:53.983Z,22.22
2022-09-28T14:03:06.842Z,22.16
2022-09-28T14:05:23.805Z,22.11
2022-09-28T14:07:47.282Z,22.13
2022-09-28T14:10:08.241Z,22.14
2022-09-28T14:12:28.883Z,22.17
2022-09-28T14:14:50.029Z,22.16
2022-09-28T14:17:21.177Z,22.20
2022-09-28T14:19:27.955Z,22.27
2022-09-28T14:22:03.310Z,22.26
2022-09-28T14:24:20.852Z,22.25
2022-09-28T14:26:42.080Z,22.17
2022-09-28T14:28:57.028Z,22.24
2022-09-28T14:31:12.012Z,22.26
2022-09-28T14:33:30.849Z,22.21
2022-09-28T14:35:43.478Z,22.21
2022-09-28T14:38:08.140Z,22.16
2022-09-28T14:40:40.504Z,22.10
2022-09-28T14:43:25.646Z,22.12
2022-09-28T14:45:36.601Z,22.09
2022-09-28T14:47:43.666Z,22.02
2022-09-28T14:49:51.651Z,22.02
2022-09-28T14:52:20.742Z,21.92
2022-09-28T14:54:54.033Z,21.85
2022-09-28T14:57:08.310Z,21.87
2022-09-28T14:59:19.535Z,21.82
2022-09-28T15:01:24.871Z,21.81
2022-09-28T15:03:30.548Z,21.79
2022-09-28T15:05:44.335Z,21.75
2022-09-28T15:07:52.468Z,21.75
2022-09-28T15:09:57.645Z,21.74
2022-09-28T15:12:22.451Z,21.67
2022-09-28T15:14:25.086Z,21.71
2022-09-28T15:16:31.205Z,21.67
2022-09-28T15:18:48.218Z,21.60
2022-09-28T15:20:50.759Z,21.58
2022-09-28T15:22:58.682Z,21.55
2022-09-28T15:25:03.150Z,21.55
2022-09-28T15:27:15.921Z,21.48
2022-09-28T15:29:19.688Z,21.52
2022-09-28T15:31:26.439Z,21.50
2022-09-28T15:33:49.634Z,21.53
2022-09-28T15:36:08.263Z,21.39
2022-09-28T15:38:18.398Z,21.42
2022-09-28T15:40:37.527Z,21.34
2022-09-28T15:42:39.723Z,21.37
2022-09-28T15:44:45.982Z,21.37
2022-09-28T15:46:50.783Z,21.35
2022-09-28T15:48:56.457Z,21.33
2022-09-28T15:51:05.229Z,21.34
2022-09-28T15:53:07.340Z,21.36
2022-09-28T15:55:18.798Z,21.34
2022-09-28T15:57:38.351Z,21.33
2022-09-28T15:59:41.475Z,21.35
2022-09-28T16:01:45.369Z,21.31
2022-09-28T16:03:47.544Z,21.31
2022-09-28T16:06:05.415Z,21.18
2022-09-28T16:08:21.466Z,21.06
2022-09-28T16:10:36.074Z,21.05
2022-09-28T16:12:38.072Z,21.10
2022-09-28T16:14:40.173Z,21.10
2022-09-28T16:16:50.482Z,21.04
2022-09-28T16:18:55.477Z,21.04
2022-09-28T16:21:20.568Z,21.01
2022-09-28T16:23:27.138Z,20.98
2022-09-28T16:25:29.194Z,20.96
2022-09-28T16:27:41.496Z,20.85
2022-09-28T16:29:45.316Z,20.86
2022-09-28T16:31:52.938Z,20.82
2022-09-28T16:33:56.156Z,20.76
2022-09-28T16:36:03.321Z,20.69
2022-09-28T16:38:16.609Z,20.62
2022-09-28T16:40:18.807Z,20.59
2022-09-28T16:42:20.800Z,20.56
2022-09-28T16:44:31.231Z,20.46
2022-09-28T16:46:37.737Z,20.41
2022-09-28T16:48:51.166Z,20.31
2022-09-28T16:50:53.855Z,20.29
2022-09-28T16:53:30.883Z,20.19
2022-09-28T16:55:40.646Z,20.15
2022-09-28T16:57:45.793Z,20.10
2022-09-28T16:59:48.100Z,20.04
2022-09-28T17:01:50.448Z,19.99
2022-09-28T17:03:52.915Z,19.94
2022-09-28T17:05:55.901Z,19.92
2022-09-28T17:08:02.115Z,19.86
2022-09-28T17:10:15.625Z,19.76
2022-09-28T17:12:24.666Z,19.73
2022-09-28T17:14:26.786Z,19.69
2022-09-28T17:16:59.893Z,19.64
2022-09-28T17:18:55.753Z,19.58
2022-09-28T17:21:03.555Z,19.52
2022-09-28T17:23:05.981Z,19.48
2022-09-28T17:25:12.725Z,19.43
2022-09-28T17:27:19.826Z,19.36
2022-09-28T17:29:22.471Z,19.32
2022-09-28T17:31:24.801Z,19.29
2022-09-28T17:33:26.921Z,19.26
2022-09-28T17:35:29.489Z,19.22
2022-09-28T17:37:34.628Z,19.18
2022-09-28T17:39:39.036Z,19.16
2022-09-28T17:41:41.385Z,19.13
2022-09-28T17:43:44.015Z,19.11
2022-09-28T17:45:47.777Z,19.06
2022-09-28T17:47:49.991Z,19.04
2022-09-28T17:49:53.958Z,19.01
2022-09-28T17:51:56.110Z,18.98
2022-09-28T17:54:01.256Z,18.93
2022-09-28T17:56:03.690Z,18.90
2022-09-28T17:58:22.729Z,18.81
2022-09-28T18:00:27.563Z,18.82
2022-09-28T18:02:29.641Z,18.81
2022-09-28T18:04:51.282Z,18.76
2022-09-28T18:06:54.116Z,18.73
2022-09-28T18:08:56.156Z,18.72
2022-09-28T18:10:58.386Z,18.72
2022-09-28T18:13:00.263Z,18.71
2022-09-28T18:15:02.163Z,18.68
2022-09-28T18:17:04.506Z,18.62
2022-09-28T18:19:06.404Z,18.57
2022-09-28T18:21:38.968Z,18.48
2022-09-28T18:23:41.512Z,18.53
2022-09-28T18:25:44.949Z,18.56
2022-09-28T18:27:46.966Z,18.56
2022-09-28T18:30:14.540Z,18.49
2022-09-28T18:32:16.548Z,18.53
2022-09-28T18:34:18.488Z,18.53
2022-09-28T18:36:20.461Z,18.56
2022-09-28T18:38:22.540Z,18.52
2022-09-28T18:40:24.735Z,18.50
2022-09-28T18:42:26.635Z,18.50
2022-09-28T18:44:31.338Z,18.50
2022-09-28T18:46:36.752Z,18.50
2022-09-28T18:48:40.634Z,18.51
2022-09-28T18:50:43.097Z,18.51
2022-09-28T18:52:47.282Z,18.46
2022-09-28T18:54:50.814Z,18.44
2022-09-28T18:56:57.308Z,18.43
2022-09-28T18:59:00.133Z,18.46
2022-09-28T19:01:28.939Z,18.39
2022-09-28T19:03:32.138Z,18.38
2022-09-28T19:05:35.184Z,18.24
2022-09-28T19:07:37.181Z,18.14
2022-09-28T19:09:44.071Z,18.08
2022-09-28T19:11:46.553Z,18.01
2022-09-28T19:13:48.524Z,18.05
2022-09-28T19:15:50.455Z,18.14
2022-09-28T19:17:52.599Z,18.19
2022-09-28T19:19:54.708Z,18.22
2022-09-28T19:21:56.556Z,18.16
2022-09-28T19:24:02.630Z,17.98
2022-09-28T19:26:13.748Z,17.84
2022-09-28T19:28:15.502Z,17.90
2022-09-28T19:30:17.406Z,17.83
2022-09-28T19:32:19.490Z,17.85
2022-09-28T19:34:24.415Z,17.87
2022-09-28T19:36:28.618Z,17.94
2022-09-28T19:38:32.635Z,17.98
2022-09-28T19:40:37.183Z,18.02
2022-09-28T19:42:40.130Z,18.04
2022-09-28T19:44:42.522Z,18.06
2022-09-28T19:46:45.264Z,18.08
2022-09-28T19:48:48.664Z,18.08
2022-09-28T19:51:03.626Z,18.04
2022-09-28T19:53:07.353Z,18.08
2022-09-28T19:55:10.161Z,18.03
2022-09-28T19:57:14.680Z,17.88
2022-09-28T19:59:16.887Z,17.83
2022-09-28T20:01:19.121Z,17.75
2022-09-28T20:03:21.240Z,17.61
2022-09-28T20:05:23.337Z,17.58
2022-09-28T20:07:25.426Z,17.56
2022-09-28T20:09:27.667Z,17.45
2022-09-28T20:11:31.695Z,17.36
2022-09-28T20:13:39.194Z,17.40
2022-09-28T20:15:41.838Z,17.44
2022-09-28T20:17:44.285Z,17.36
2022-09-28T20:19:47.288Z,17.44
2022-09-28T20:21:50.546Z,17.49
2022-09-28T20:23:57.676Z,17.49
2022-09-28T20:25:59.771Z,17.37
2022-09-28T20:28:02.335Z,17.34
2022-09-28T20:30:05.317Z,17.27
2022-09-28T20:32:07.499Z,17.16
2022-09-28T20:34:09.850Z,17.18
2022-09-28T20:36:17.699Z,17.17
2022-09-28T20:38:19.629Z,17.23
2022-09-28T20:40:23.121Z,17.19
2022-09-28T20:42:27.657Z,17.13
2022-09-28T20:44:29.748Z,17.12
2022-09-28T20:46:31.956Z,17.08
2022-09-28T20:48:35.106Z,16.98
2022-09-28T20:50:37.130Z,16.94
2022-09-28T20:52:39.141Z,17.05
2022-09-28T20:54:41.419Z,17.07
2022-09-28T20:56:43.571Z,17.10
2022-09-28T20:58:46.381Z,17.08
2022-09-28T21:00:48.538Z,17.04
2022-09-28T21:02:53.887Z,16.98
2022-09-28T21:04:56.191Z,17.02
2022-09-28T21:06:58.432Z,17.04
2022-09-28T21:09:01.311Z,16.93
2022-09-28T21:11:03.312Z,16.88
2022-09-28T21:13:05.753Z,16.84
2022-09-28T21:15:08.216Z,16.88
2022-09-28T21:17:11.841Z,16.92
2022-09-28T21:19:13.847Z,16.91
2022-09-28T21:21:18.294Z,16.83
2022-09-28T21:23:25.041Z,16.79
2022-09-28T21:25:27.390Z,16.79
2022-09-28T21:27:29.219Z,16.84
2022-09-28T21:29:31.195Z,16.89
2022-09-28T21:31:47.271Z,16.78
2022-09-28T21:33:49.851Z,16.75
2022-09-28T21:35:51.966Z,16.78
2022-09-28T21:37:56.491Z,16.76
2022-09-28T21:39:59.648Z,16.70
2022-09-28T21:42:01.870Z,16.70
2022-09-28T21:44:03.913Z,16.64
2022-09-28T21:46:06.213Z,16.73
2022-09-28T21:48:08.265Z,16.79
2022-09-28T21:50:10.250Z,16.76
2022-09-28T21:52:12.374Z,16.78
2022-09-28T21:54:15.367Z,16.80
2022-09-28T21:56:17.696Z,16.72
2022-09-28T21:58:25.516Z,16.59
2022-09-28T22:00:27.901Z,16.54
2022-09-28T22:02:30.902Z,16.61
2022-09-28T22:04:32.968Z,16.60
2022-09-28T22:06:35.668Z,16.53
2022-09-28T22:08:38.079Z,16.48
2022-09-28T22:10:40.099Z,16.52
2022-09-28T22:12:42.241Z,16.51
2022-09-28T22:14:44.186Z,16.49
2022-09-28T22:16:46.392Z,16.43
2022-09-28T22:18:49.129Z,16.46
2022-09-28T22:21:01.798Z,16.46
2022-09-28T22:23:03.747Z,16.47
2022-09-28T22:25:06.386Z,16.49
2022-09-28T22:27:08.445Z,16.43
2022-09-28T22:29:11.039Z,16.47
2022-09-28T22:31:14.753Z,16.50
2022-09-28T22:33:17.027Z,16.50
2022-09-28T22:35:19.117Z,16.54
2022-09-28T22:37:21.637Z,16.54
2022-09-28T22:39:23.825Z,16.55
2022-09-28T22:41:26.761Z,16.53
2022-09-28T22:43:28.925Z,16.42
2022-09-28T22:45:31.086Z,16.46
2022-09-28T22:47:33.162Z,16.40
2022-09-28T22:49:35.333Z,16.35
2022-09-28T22:51:37.600Z,16.23
2022-09-28T22:53:39.697Z,16.19
2022-09-28T22:55:42.372Z,16.16
2022-09-28T22:57:44.547Z,16.15
2022-09-28T22:59:46.918Z,16.15
2022-09-28T23:01:49.210Z,16.12
2022-09-28T23:03:52.968Z,16.01
2022-09-28T23:05:57.107Z,16.08
2022-09-28T23:07:59.351Z,16.01
2022-09-28T23:10:01.834Z,16.04
2022-09-28T23:12:04.211Z,16.10
2022-09-28T23:14:06.717Z,16.14
2022-09-28T23:16:12.050Z,16.11
2022-09-28T23:18:14.531Z,16.14
2022-09-28T23:20:17.124Z,16.21
2022-09-28T23:22:22.047Z,16.13
2022-09-28T23:24:24.207Z,16.18
2022-09-28T23:26:29.724Z,16.21
2022-09-28T23:28:31.829Z,16.20
2022-09-28T23:30:34.276Z,16.24
2022-09-28T23:32:37.294Z,16.23
2022-09-28T23:34:40.694Z,16.24
2022-09-28T23:36:42.949Z,16.24
2022-09-28T23:38:45.224Z,16.23
2022-09-28T23:40:47.717Z,16.21
2022-09-28T23:42:49.819Z,16.21
2022-09-28T23:44:51.989Z,16.19
2022-09-28T23:46:54.705Z,16.20
2022-09-28T23:48:57.116Z,16.20
2022-09-28T23:50:59.334Z,16.15
2022-09-28T23:53:01.308Z,16.18
2022-09-28T23:55:03.798Z,16.21
2022-09-28T23:57:06.401Z,16.22
2022-09-28T23:59:08.535Z,16.21
